createdAt,value
2022-09-01T00:01:39.159Z,1.40
2022-09-01T00:04:08.861Z,1.30
2022-09-01T00:06:40.084Z,1.20
2022-09-01T00:09:10.906Z,1.40
2022-09-01T00:11:39.239Z,1.30
2022-09-01T00:14:29.513Z,0.97
2022-09-01T00:16:57.260Z,1.23
2022-09-01T00:19:25.030Z,1.17
2022-09-01T00:21:52.961Z,1.27
2022-09-01T00:24:21.435Z,1.27
2022-09-01T00:26:49.893Z,1.43
2022-09-01T00:29:20.037Z,1.03
2022-09-01T00:31:48.559Z,1.47
2022-09-01T00:34:17.612Z,1.00
2022-09-01T00:36:45.433Z,1.37
2022-09-01T00:39:15.315Z,1.17
2022-09-01T00:41:44.997Z,1.53
2022-09-01T00:44:15.813Z,1.20
2022-09-01T00:46:49.722Z,0.97
2022-09-01T00:49:28.286Z,1.27
2022-09-01T00:52:05.922Z,1.07
2022-09-01T00:54:36.927Z,1.20
2022-09-01T00:57:06.067Z,1.20
2022-09-01T00:59:34.107Z,0.93
2022-09-01T01:02:02.978Z,1.20
2022-09-01T01:04:31.390Z,1.10
2022-09-01T01:07:02.739Z,1.23
2022-09-01T01:09:33.941Z,1.50
2022-09-01T01:12:05.772Z,1.37
2022-09-01T01:14:37.105Z,1.27
2022-09-01T01:17:06.596Z,1.40
2022-09-01T01:20:00.781Z,1.20
2022-09-01T01:22:57.080Z,1.50
2022-09-01T01:25:26.816Z,1.27
2022-09-01T01:28:05.439Z,1.37
2022-09-01T01:30:35.369Z,1.40
2022-09-01T01:33:03.793Z,1.30
2022-09-01T01:35:33.629Z,1.40
2022-09-01T01:38:03.132Z,1.10
2022-09-01T01:40:32.036Z,1.20
2022-09-01T01:43:01.706Z,1.10
2022-09-01T01:45:29.757Z,1.63
2022-09-01T01:47:59.121Z,2.03
2022-09-01T01:50:35.847Z,1.97
2022-09-01T01:53:10.843Z,1.30
2022-09-01T01:55:41.768Z,1.50
2022-09-01T01:58:12.039Z,1.23
2022-09-01T02:00:42.942Z,1.10
2022-09-01T02:03:12.693Z,1.23
2022-09-01T02:05:40.763Z,1.20
2022-09-01T02:08:11.366Z,1.33
2022-09-01T02:10:47.458Z,1.40
2022-09-01T02:13:18.702Z,1.83
2022-09-01T02:15:48.671Z,1.27
2022-09-01T02:18:18.935Z,1.30
2022-09-01T02:20:49.264Z,1.30
2022-09-01T02:23:17.967Z,1.63
2022-09-01T02:26:14.188Z,1.30
2022-09-01T02:28:39.938Z,1.20
2022-09-01T02:31:08.968Z,1.40
2022-09-01T02:33:37.321Z,1.50
2022-09-01T02:36:13.217Z,1.23
2022-09-01T02:38:41.756Z,1.17
2022-09-01T02:41:12.101Z,1.10
2022-09-01T02:43:39.993Z,1.27
2022-09-01T02:46:08.350Z,1.50
2022-09-01T02:48:38.231Z,1.20
2022-09-01T02:51:08.512Z,1.47
2022-09-01T02:53:39.267Z,1.30
2022-09-01T02:56:11.950Z,1.67
2022-09-01T02:58:45.692Z,1.47
2022-09-01T03:01:17.056Z,1.30
2022-09-01T03:03:45.275Z,1.43
2022-09-01T03:06:12.918Z,1.80
2022-09-01T03:08:41.156Z,1.53
2022-09-01T03:11:12.996Z,1.20
2022-09-01T03:13:42.879Z,1.33
2022-09-01T03:16:11.372Z,1.77
2022-09-01T03:18:39.799Z,1.37
2022-09-01T03:21:09.508Z,2.20
2022-09-01T03:23:38.077Z,1.47
2022-09-01T03:26:05.880Z,1.33
2022-09-01T03:28:33.702Z,1.50
2022-09-01T03:31:02.679Z,1.30
2022-09-01T03:33:32.391Z,1.63
2022-09-01T03:36:00.878Z,1.37
2022-09-01T03:38:28.669Z,1.43
2022-09-01T03:41:01.891Z,1.37
2022-09-01T03:43:36.162Z,1.42
2022-09-01T03:46:06.074Z,1.20
2022-09-01T03:48:34.389Z,1.70
2022-09-01T03:51:03.121Z,1.50
2022-09-01T03:53:37.589Z,1.60
2022-09-01T03:56:07.273Z,1.30
2022-09-01T03:58:35.052Z,1.80
2022-09-01T04:01:03.002Z,1.53
2022-09-01T04:03:36.184Z,1.47
2022-09-01T04:06:04.395Z,1.33
2022-09-01T04:08:34.961Z,1.90
2022-09-01T04:11:05.185Z,1.30
2022-09-01T04:13:36.655Z,1.30
2022-09-01T04:16:10.396Z,1.50
2022-09-01T04:18:39.979Z,1.70
2022-09-01T04:21:10.460Z,1.63
2022-09-01T04:23:37.970Z,1.53
2022-09-01T04:26:10.417Z,1.37
2022-09-01T04:28:42.172Z,1.70
2022-09-01T04:31:18.650Z,2.03
2022-09-01T04:33:52.708Z,1.60
2022-09-01T04:36:25.239Z,1.40
2022-09-01T04:38:56.109Z,1.40
2022-09-01T04:41:27.698Z,1.50
2022-09-01T04:43:57.035Z,1.70
2022-09-01T04:46:29.572Z,1.90
2022-09-01T04:48:59.651Z,2.10
2022-09-01T04:51:28.013Z,3.00
2022-09-01T04:53:57.383Z,3.28
2022-09-01T04:56:28.375Z,3.10
2022-09-01T04:59:17.187Z,2.23
2022-09-01T05:01:54.219Z,1.80
2022-09-01T05:04:27.380Z,1.97
2022-09-01T05:06:59.596Z,2.07
2022-09-01T05:09:30.633Z,1.90
2022-09-01T05:12:23.131Z,1.83
2022-09-01T05:14:50.885Z,2.27
2022-09-01T05:17:30.005Z,1.77
2022-09-01T05:19:59.740Z,1.83
2022-09-01T05:22:27.382Z,2.00
2022-09-01T05:25:13.037Z,1.63
2022-09-01T05:27:49.444Z,2.50
2022-09-01T05:30:19.103Z,1.93
2022-09-01T05:32:48.343Z,1.97
2022-09-01T05:35:17.496Z,1.47
2022-09-01T05:37:45.975Z,2.00
2022-09-01T05:40:16.103Z,1.97
2022-09-01T05:42:44.462Z,2.53
2022-09-01T05:45:12.736Z,2.00
2022-09-01T05:47:41.751Z,1.97
2022-09-01T05:50:14.505Z,1.77
2022-09-01T05:52:47.882Z,2.00
2022-09-01T05:55:16.638Z,2.30
2022-09-01T05:57:45.181Z,2.00
2022-09-01T06:00:13.554Z,1.67
2022-09-01T06:02:42.724Z,2.13
2022-09-01T06:05:15.160Z,2.65
2022-09-01T06:07:47.360Z,3.08
2022-09-01T06:10:15.860Z,3.00
2022-09-01T06:12:45.229Z,2.40
2022-09-01T06:15:22.693Z,2.60
2022-09-01T06:17:56.695Z,1.97
2022-09-01T06:20:24.625Z,2.40
2022-09-01T06:23:00.944Z,2.40
2022-09-01T06:25:37.916Z,2.20
2022-09-01T06:28:08.566Z,2.40
2022-09-01T06:30:36.720Z,2.83
2022-09-01T06:33:11.042Z,2.20
2022-09-01T06:35:42.201Z,2.30
2022-09-01T06:38:13.710Z,2.30
2022-09-01T06:40:45.087Z,1.90
2022-09-01T06:43:16.092Z,2.37
2022-09-01T06:45:54.235Z,2.60
2022-09-01T06:48:23.854Z,2.10
2022-09-01T06:53:46.853Z,2.10
2022-09-01T06:56:18.677Z,2.53
2022-09-01T06:58:48.788Z,2.20
2022-09-01T07:01:19.645Z,2.13
2022-09-01T07:03:51.887Z,2.17
2022-09-01T07:10:06.368Z,2.07
2022-09-01T07:13:05.332Z,1.67
2022-09-01T07:16:32.554Z,1.73
2022-09-01T07:18:25.126Z,1.43
2022-09-01T07:21:38.919Z,1.50
2022-09-01T07:26:35.316Z,1.53
2022-09-01T07:29:04.057Z,1.47
2022-09-01T07:32:44.099Z,1.23
2022-09-01T07:34:41.395Z,1.20
2022-09-01T07:43:29.810Z,1.27
2022-09-01T07:46:37.505Z,1.17
2022-09-01T07:51:56.850Z,1.13
2022-09-01T07:54:27.446Z,0.90
2022-09-01T07:56:57.025Z,1.43
2022-09-01T07:59:27.783Z,1.10
2022-09-01T08:02:05.662Z,1.27
2022-09-01T08:04:34.040Z,1.20
2022-09-01T08:07:03.030Z,1.23
2022-09-01T08:09:37.523Z,1.00
2022-09-01T08:12:07.458Z,1.20
2022-09-01T08:14:40.136Z,0.90
2022-09-01T08:19:58.390Z,0.90
2022-09-01T08:22:55.240Z,1.17
2022-09-01T08:25:30.897Z,0.90
2022-09-01T08:28:00.735Z,1.13
2022-09-01T08:30:32.335Z,1.00
2022-09-01T08:33:10.273Z,1.23
2022-09-01T08:35:40.040Z,1.57
2022-09-01T08:38:08.927Z,1.20
2022-09-01T08:40:37.811Z,1.10
2022-09-01T08:43:15.735Z,1.10
2022-09-01T08:45:50.949Z,1.00
2022-09-01T08:49:18.422Z,1.47
2022-09-01T08:51:20.906Z,1.00
2022-09-01T08:54:04.323Z,0.90
2022-09-01T08:56:35.411Z,1.23
2022-09-01T08:59:03.302Z,1.20
2022-09-01T09:02:00.742Z,1.00
2022-09-01T09:04:47.479Z,1.47
2022-09-01T09:07:26.663Z,1.13
2022-09-01T09:09:59.607Z,1.03
2022-09-01T09:12:48.929Z,0.90
2022-09-01T09:15:25.467Z,1.20
2022-09-01T09:18:02.487Z,1.30
2022-09-01T09:20:38.535Z,1.03
2022-09-01T09:23:17.452Z,1.10
2022-09-01T09:25:45.748Z,1.00
2022-09-01T09:28:13.342Z,1.30
2022-09-01T09:30:40.947Z,1.10
2022-09-01T09:36:19.160Z,1.20
2022-09-01T09:38:47.058Z,1.20
2022-09-01T09:41:26.684Z,1.07
2022-09-01T09:43:58.990Z,0.90
2022-09-01T09:46:35.502Z,1.00
2022-09-01T09:49:36.048Z,1.10
2022-09-01T09:52:18.357Z,1.10
2022-09-01T09:55:04.606Z,1.20
2022-09-01T09:57:38.919Z,1.20
2022-09-01T10:00:15.863Z,1.00
2022-09-01T10:02:46.319Z,1.20
2022-09-01T10:05:30.143Z,0.90
2022-09-01T10:07:59.163Z,1.00
2022-09-01T10:10:31.118Z,1.10
2022-09-01T10:13:01.991Z,1.00
2022-09-01T10:15:33.396Z,1.00
2022-09-01T10:18:20.503Z,1.03
2022-09-01T10:21:00.046Z,1.10
2022-09-01T10:23:30.895Z,1.30
2022-09-01T10:26:05.978Z,1.40
2022-09-01T10:28:37.130Z,0.90
2022-09-01T10:31:05.248Z,0.90
2022-09-01T10:33:37.025Z,1.00
2022-09-01T10:36:08.153Z,1.00
2022-09-01T10:38:36.062Z,1.10
2022-09-01T10:41:15.839Z,1.03
2022-09-01T10:43:45.170Z,0.90
2022-09-01T10:46:49.386Z,1.10
2022-09-01T10:49:50.260Z,1.33
2022-09-01T10:52:55.671Z,0.97
2022-09-01T10:55:26.808Z,0.90
2022-09-01T10:59:29.831Z,0.90
2022-09-01T11:01:18.929Z,1.00
2022-09-01T11:03:56.395Z,1.00
2022-09-01T11:09:48.392Z,1.10
2022-09-01T11:12:39.908Z,1.17
2022-09-01T11:15:36.570Z,2.27
2022-09-01T11:18:11.679Z,1.20
2022-09-01T11:20:41.085Z,0.93
2022-09-01T11:23:14.942Z,1.00
2022-09-01T11:25:45.816Z,1.20
2022-09-01T11:28:41.995Z,0.93
2022-09-01T11:31:22.422Z,1.30
2022-09-01T11:34:12.074Z,1.10
2022-09-01T11:36:51.330Z,0.87
2022-09-01T11:39:32.768Z,1.00
2022-09-01T11:42:05.546Z,1.30
2022-09-01T11:44:40.655Z,1.10
2022-09-01T11:47:16.593Z,1.10
2022-09-01T11:49:51.573Z,0.90
2022-09-01T11:52:21.429Z,1.20
2022-09-01T11:54:50.384Z,1.43
2022-09-01T11:57:22.125Z,1.20
2022-09-01T11:59:49.736Z,1.10
2022-09-01T12:02:23.100Z,0.87
2022-09-01T12:04:51.696Z,1.00
2022-09-01T12:07:29.832Z,1.20
2022-09-01T12:09:57.499Z,0.93
2022-09-01T12:12:37.425Z,1.20
2022-09-01T12:15:09.212Z,1.00
2022-09-01T12:17:37.253Z,1.20
2022-09-01T12:20:34.871Z,0.90
2022-09-01T12:23:02.559Z,1.00
2022-09-01T12:25:34.600Z,0.90
2022-09-01T12:28:06.330Z,0.90
2022-09-01T12:30:39.394Z,1.00
2022-09-01T12:33:24.430Z,1.00
2022-09-01T12:35:56.090Z,0.97
2022-09-01T12:38:29.821Z,0.80
2022-09-01T12:40:59.119Z,0.80
2022-09-01T12:43:47.907Z,0.80
2022-09-01T12:46:42.221Z,0.90
2022-09-01T12:49:20.362Z,1.07
2022-09-01T12:51:48.488Z,0.90
2022-09-01T12:54:16.712Z,1.00
2022-09-01T12:56:50.925Z,0.90
2022-09-01T12:59:36.255Z,0.97
2022-09-01T13:02:28.007Z,1.37
2022-09-01T13:04:55.587Z,0.80
2022-09-01T13:07:23.087Z,1.03
2022-09-01T13:09:50.564Z,0.90
2022-09-01T13:12:21.318Z,1.10
2022-09-01T13:14:50.704Z,0.80
2022-09-01T13:17:19.834Z,0.77
2022-09-01T13:19:47.324Z,0.70
2022-09-01T13:22:14.846Z,1.30
2022-09-01T13:24:42.357Z,1.00
2022-09-01T13:27:26.615Z,0.97
2022-09-01T13:29:55.770Z,0.90
2022-09-01T13:32:24.623Z,0.87
2022-09-01T13:34:54.128Z,0.90
2022-09-01T13:37:22.644Z,1.10
2022-09-01T13:39:50.408Z,0.82
2022-09-01T13:42:18.572Z,0.77
2022-09-01T13:44:49.679Z,0.90
2022-09-01T13:47:29.480Z,0.87
2022-09-01T13:50:06.992Z,0.87
2022-09-01T13:52:35.890Z,1.00
2022-09-01T13:55:03.440Z,1.00
2022-09-01T13:57:32.817Z,0.90
2022-09-01T14:00:06.726Z,0.80
2022-09-01T14:02:39.556Z,1.00
2022-09-01T14:05:07.963Z,0.80
2022-09-01T14:07:35.549Z,1.03
2022-09-01T14:10:03.127Z,0.80
2022-09-01T14:12:31.978Z,0.80
2022-09-01T14:15:17.773Z,1.03
2022-09-01T14:17:49.462Z,1.10
2022-09-01T14:20:19.991Z,2.60
2022-09-01T14:22:48.173Z,1.10
2022-09-01T14:25:16.757Z,1.00
2022-09-01T14:27:45.451Z,1.10
2022-09-01T14:30:15.803Z,0.70
2022-09-01T14:32:43.409Z,0.90
2022-09-01T14:35:12.867Z,0.90
2022-09-01T14:37:41.085Z,1.10
2022-09-01T14:40:12.882Z,0.90
2022-09-01T14:42:46.693Z,1.00
2022-09-01T14:45:15.948Z,0.90
2022-09-01T14:47:44.092Z,0.80
2022-09-01T14:50:15.948Z,0.90
2022-09-01T14:52:47.105Z,1.00
2022-09-01T14:55:14.761Z,0.80
2022-09-01T14:57:42.658Z,1.13
2022-09-01T15:00:13.327Z,0.90
2022-09-01T15:02:43.644Z,1.00
2022-09-01T15:05:14.466Z,0.90
2022-09-01T15:07:47.868Z,0.75
2022-09-01T15:10:24.911Z,1.00
2022-09-01T15:12:54.410Z,1.10
2022-09-01T15:15:22.484Z,0.80
2022-09-01T15:17:50.120Z,1.47
2022-09-01T15:20:37.233Z,0.90
2022-09-01T15:23:05.927Z,0.80
2022-09-01T15:25:34.084Z,0.80
2022-09-01T15:28:01.622Z,0.90
2022-09-01T15:30:29.326Z,0.87
2022-09-01T15:32:56.847Z,0.90
2022-09-01T15:35:25.815Z,1.20
2022-09-01T15:37:53.723Z,0.80
2022-09-01T15:40:21.592Z,0.73
2022-09-01T15:42:49.471Z,0.83
2022-09-01T15:45:19.509Z,0.80
2022-09-01T15:47:49.219Z,1.00
2022-09-01T15:50:21.962Z,0.70
2022-09-01T15:52:53.270Z,0.80
2022-09-01T15:55:23.922Z,0.97
2022-09-01T15:57:54.898Z,1.00
2022-09-01T16:00:24.778Z,0.90
2022-09-01T16:02:54.214Z,0.80
2022-09-01T16:05:21.818Z,0.83
2022-09-01T16:07:52.936Z,0.73
2022-09-01T16:10:21.306Z,0.80
2022-09-01T16:12:49.816Z,0.80
2022-09-01T16:15:20.603Z,0.93
2022-09-01T16:18:03.276Z,0.87
2022-09-01T16:20:37.386Z,0.77
2022-09-01T16:23:14.823Z,0.83
2022-09-01T16:25:45.069Z,0.73
2022-09-01T16:28:25.259Z,0.80
2022-09-01T16:30:58.742Z,0.80
2022-09-01T16:33:26.435Z,1.07
2022-09-01T16:36:07.955Z,0.90
2022-09-01T16:38:46.529Z,0.70
2022-09-01T16:41:24.171Z,0.90
2022-09-01T16:44:00.206Z,0.90
2022-09-01T16:46:34.765Z,0.70
2022-09-01T16:49:14.533Z,1.20
2022-09-01T16:51:49.540Z,0.90
2022-09-01T16:54:24.736Z,0.90
2022-09-01T16:57:01.120Z,0.90
2022-09-01T16:59:37.635Z,0.90
2022-09-01T17:02:20.620Z,0.73
2022-09-01T17:04:53.337Z,0.90
2022-09-01T17:07:29.476Z,0.97
2022-09-01T17:10:05.726Z,0.90
2022-09-01T17:12:41.606Z,1.03
2022-09-01T17:15:11.459Z,1.00
2022-09-01T17:17:45.588Z,0.90
2022-09-01T17:20:15.709Z,1.03
2022-09-01T17:22:51.342Z,0.90
2022-09-01T17:25:28.988Z,0.90
2022-09-01T17:28:04.230Z,0.70
2022-09-01T17:30:36.136Z,0.70
2022-09-01T17:33:18.629Z,1.10
2022-09-01T17:35:58.664Z,0.80
2022-09-01T17:38:31.753Z,0.90
2022-09-01T17:41:10.480Z,0.70
2022-09-01T17:43:50.272Z,0.80
2022-09-01T17:46:27.297Z,1.02
2022-09-01T17:48:59.596Z,0.73
2022-09-01T17:51:37.366Z,0.80
2022-09-01T17:54:14.355Z,1.00
2022-09-01T17:56:53.158Z,1.00
2022-09-01T17:59:32.020Z,0.80
2022-09-01T18:02:20.040Z,0.80
2022-09-01T18:05:01.904Z,0.90
2022-09-01T18:07:49.210Z,1.87
2022-09-01T18:10:21.825Z,0.90
2022-09-01T18:12:56.977Z,0.97
2022-09-01T18:15:24.992Z,1.00
2022-09-01T18:17:55.797Z,0.90
2022-09-01T18:20:28.008Z,1.00
2022-09-01T18:23:02.049Z,1.03
2022-09-01T18:25:39.503Z,0.80
2022-09-01T18:28:09.741Z,0.80
2022-09-01T18:30:59.930Z,1.23
2022-09-01T18:33:30.256Z,1.97
2022-09-01T18:36:16.571Z,1.00
2022-09-01T18:38:52.202Z,1.00
2022-09-01T18:41:36.666Z,1.10
2022-09-01T18:44:22.452Z,0.77
2022-09-01T18:47:00.913Z,1.20
2022-09-01T18:49:36.633Z,0.90
2022-09-01T18:52:19.368Z,1.00
2022-09-01T18:54:55.428Z,1.00
2022-09-01T18:57:32.463Z,1.07
2022-09-01T19:00:17.781Z,1.03
2022-09-01T19:03:00.867Z,1.00
2022-09-01T19:05:47.428Z,1.10
2022-09-01T19:08:28.111Z,0.80
2022-09-01T19:11:09.292Z,1.10
2022-09-01T19:13:53.279Z,0.97
2022-09-01T19:16:42.931Z,1.10
2022-09-01T19:19:25.172Z,1.00
2022-09-01T19:21:56.373Z,0.90
2022-09-01T19:24:30.171Z,0.90
2022-09-01T19:27:08.247Z,0.90
2022-09-01T19:29:45.093Z,0.90
2022-09-01T19:32:18.480Z,1.40
2022-09-01T19:34:50.634Z,0.80
2022-09-01T19:37:19.126Z,1.10
2022-09-01T19:39:53.366Z,1.00
2022-09-01T19:42:27.076Z,1.10
2022-09-01T19:45:06.934Z,0.87
2022-09-01T19:47:45.324Z,1.10
2022-09-01T19:50:21.080Z,0.83
2022-09-01T19:52:56.715Z,1.03
2022-09-01T19:55:31.491Z,1.55
2022-09-01T19:58:04.930Z,0.90
2022-09-01T20:00:45.696Z,1.17
2022-09-01T20:03:23.623Z,1.47
2022-09-01T20:05:57.982Z,0.90
2022-09-01T20:08:30.367Z,1.20
2022-09-01T20:11:03.253Z,1.10
2022-09-01T20:13:43.753Z,1.30
2022-09-01T20:16:20.722Z,0.90
2022-09-01T20:18:53.535Z,0.93
2022-09-01T20:21:22.175Z,1.00
2022-09-01T20:23:56.620Z,1.13
2022-09-01T20:26:31.968Z,1.10
2022-09-01T20:29:06.981Z,1.20
2022-09-01T20:31:38.694Z,1.30
2022-09-01T20:34:15.109Z,1.05
2022-09-01T20:36:51.449Z,1.37
2022-09-01T20:39:54.294Z,0.90
2022-09-01T20:42:31.399Z,1.10
2022-09-01T20:45:02.044Z,1.13
2022-09-01T20:47:32.318Z,1.20
2022-09-01T20:50:03.445Z,1.33
2022-09-01T20:52:38.844Z,1.30
2022-09-01T20:55:13.611Z,1.10
2022-09-01T20:57:51.253Z,1.30
2022-09-01T21:00:25.821Z,1.03
2022-09-01T21:03:03.808Z,1.53
2022-09-01T21:05:49.210Z,1.00
2022-09-01T21:08:29.700Z,1.30
2022-09-01T21:11:14.479Z,1.20
2022-09-01T21:13:57.764Z,1.40
2022-09-01T21:16:41.522Z,1.20
2022-09-01T21:19:25.219Z,1.50
2022-09-01T21:22:04.595Z,1.13
2022-09-01T21:24:32.303Z,1.40
2022-09-01T21:27:05.000Z,1.20
2022-09-01T21:29:44.544Z,1.23
2022-09-01T21:32:13.798Z,1.10
2022-09-01T21:34:41.261Z,1.27
2022-09-01T21:37:10.497Z,1.30
2022-09-01T21:39:38.433Z,1.45
2022-09-01T21:42:08.740Z,1.20
2022-09-01T21:44:37.790Z,1.30
2022-09-01T21:47:05.917Z,1.17
2022-09-01T21:49:33.434Z,1.17
2022-09-01T21:52:01.309Z,1.30
2022-09-01T21:54:30.272Z,1.40
2022-09-01T21:56:57.837Z,1.10
2022-09-01T21:59:25.626Z,1.17
2022-09-01T22:01:53.249Z,1.13
2022-09-01T22:04:24.206Z,1.10
2022-09-01T22:06:52.194Z,1.50
2022-09-01T22:09:21.762Z,1.00
2022-09-01T22:11:52.408Z,1.13
2022-09-01T22:14:21.603Z,1.07
2022-09-01T22:16:50.309Z,1.13
2022-09-01T22:19:18.160Z,1.10
2022-09-01T22:21:47.963Z,1.20
2022-09-01T22:24:19.177Z,1.20
2022-09-01T22:26:47.862Z,1.00
2022-09-01T22:29:17.450Z,1.23
2022-09-01T22:31:45.751Z,1.10
2022-09-01T22:34:13.607Z,1.33
2022-09-01T22:36:44.517Z,1.27
2022-09-01T22:39:13.845Z,1.03
2022-09-01T22:41:42.254Z,1.23
2022-09-01T22:44:10.973Z,1.40
2022-09-01T22:46:40.912Z,1.17
2022-09-01T22:49:09.216Z,1.20
2022-09-01T22:51:38.952Z,1.13
2022-09-01T22:54:07.253Z,1.50
2022-09-01T22:56:39.024Z,1.10
2022-09-01T22:59:09.575Z,1.10
2022-09-01T23:01:42.336Z,1.10
2022-09-01T23:04:12.006Z,1.37
2022-09-01T23:06:41.878Z,1.20
2022-09-01T23:09:10.340Z,1.30
2022-09-01T23:11:38.587Z,1.23
2022-09-01T23:14:06.525Z,1.53
2022-09-01T23:16:34.528Z,1.13
2022-09-01T23:19:04.673Z,1.27
2022-09-01T23:21:35.795Z,1.20
2022-09-01T23:24:04.086Z,1.00
2022-09-01T23:26:32.745Z,1.17
2022-09-01T23:29:01.043Z,1.10
2022-09-01T23:31:30.994Z,1.30
2022-09-01T23:33:58.963Z,1.30
2022-09-01T23:36:30.147Z,1.10
2022-09-01T23:38:58.266Z,1.40
2022-09-01T23:41:31.162Z,1.30
2022-09-01T23:44:01.312Z,1.30
2022-09-01T23:46:33.248Z,1.20
2022-09-01T23:49:02.329Z,1.27
2022-09-01T23:51:31.273Z,0.90
2022-09-01T23:53:58.826Z,1.27
2022-09-01T23:56:29.399Z,1.30
2022-09-01T23:58:58.784Z,1.17
